Yass, Australia
Current Conditions -  °F | °C
As of 12:30 AM on Saturday 25 Oct 2014 (Local Time) from YSCB Reporting Station
Clear Clear  
Wind Chill: 55°   Ceiling: Unl
Heat Index: 55°   Visibility: 6mi
Dew Point: 48°   Wind: 2mph
Humidity: 77%   Direction: 140°SE
Pressure: 29.94"   Gusts: NA
Location:  34.84°S, 148.91°E
Report Text: YSCB 241330Z AUTO 14002KT 9999 // NCD 13/09 Q1014
Loading
Personal Weather Stations






























Interactive Weather Map
Tropical Storm Tracking
New forecast layout! Learn more

10-Day Weather Forecast

Advertisements
Track Severe Weather on mobile